Tiempo atmosférico en la estación meteorológica de Zumarraga, Gipuzkoa (420 m.)



Fecha
DESCASC
Temp. máxima en grados centígrados (hora)
DESCASC
Temp. mínima en grados centígrados (hora)
DESCASC
Temp. media en grados centígrados
DESCASC
Racha de viento máxima en m/sg (hora)
DESCASC
Velocidad máxima media en intervalos de 10 minutos(hora)
DESCASC
Precipitaciones diarias en mm
DESCASC
Precipitaciones de 00:00 a 06:00 en mm
DESCASC
Precipitaciones de 06:00 a 12:00 en mm
DESCASC
Precipitaciones de 12:00 a 18:00 en mm
DESCASC
Precipitaciones de 18:00 a 24:00 en mm
DESCASC
28-02-2021 9.3 (22:50) 2.8 (05:40) 6.1 11.39 (22:20) 4.72 (23:00) 3 0 0 0.9 2.1
27-02-2021 10.8 (13:00) 4.5 (20:00) 7.7 5.83 (14:00) 3.61 (17:20) 0 0 0 0 0
26-02-2021 10.6 (15:00) 7.9 (22:00) 9.3 5.28 (17:50) 2.22 (17:20) 0 0 0 0 0
25-02-2021 12.9 (15:40) 8.2 (00:00) 10.5 10 (05:20) 3.33 (05:40) 0 0 0 0 0
24-02-2021 15.1 (15:30) 9.2 (00:00) 12.2 13.06 (21:00) 5 (13:50) 0 0 0 0 0
23-02-2021 13.4 (15:30) 2.9 (00:00) 8.1 11.39 (12:30) 4.72 (11:00) 0 0 0 0 0
22-02-2021 7.3 (15:40) 3.7 (00:00) 5.5 9.72 (00:30) 5.28 (00:40) 46.7 25.5 19.9 1.3 0
21-02-2021 13.6 (12:30) 5.1 (00:00) 9.4 15.83 (06:30) 6.39 (23:20) 2.8 0 0 0 2.8
20-02-2021 17.5 (13:50) 12.2 (00:00) 14.8 12.78 (02:50) 6.11 (02:40) 0 0 0 0 0
19-02-2021 17 (16:40) 7.7 (00:00) 12.3 12.5 (22:00) 4.72 (22:00) 0 0 0 0 0
18-02-2021 16.7 (12:50) 6.7 (00:00) 11.7 12.5 (14:00) 3.61 (17:20) 0 0 0 0 0
17-02-2021 15.6 (14:00) 5.7 (00:00) 10.7 12.22 (13:10) 3.89 (22:10) 0 0 0 0 0
16-02-2021 14.8 (14:00) 6.1 (00:00) 10.5 12.22 (06:00) 6.11 (06:00) 0 0 0 0 0
15-02-2021 12.2 (13:40) 5.2 (00:00) 8.7 12.22 (00:30) 5.28 (00:10) 0 0 0 0 0
14-02-2021 13 (14:10) 2.7 (00:00) 7.9 10.83 (23:40) 5.56 (23:40) 0.1 0 0.1 0 0
13-02-2021 10.9 (16:50) 3.3 (00:00) 7.1 4.72 (00:30) 3.33 (13:30) 0 0 0 0 0
12-02-2021 13.4 (04:50) 7.7 (00:00) 10.5 11.67 (11:40) 7.5 (11:30) 19.8 0 3.9 14.6 1.3
11-02-2021 15.3 (15:30) 2.2 (00:00) 8.8 7.78 (23:10) 1.94 (23:59) 0 0 0 0 0
10-02-2021 7.5 (17:10) 4.1 (00:00) 5.8 7.5 (02:10) 3.33 (11:50) 3.3 1.1 1.2 1 0
09-02-2021 11 (12:00) 4.6 (00:00) 7.8 14.17 (11:50) 3.61 (09:40) 4.7 0 0 4.7 0
08-02-2021 10.2 (15:50) 4.4 (00:00) 7.3 11.11 (16:20) 5 (16:20) 12.9 2.9 6.1 3.9 0
07-02-2021 7.8 (16:20) 2.3 (00:00) 5.1 5.56 (16:20) 3.33 (04:20) 4.8 2.8 1.2 0 0.8
06-02-2021 8.2 (12:10) 3.1 (00:00) 5.6 12.78 (13:00) 7.78 (13:10) 16.2 0.1 2.3 12.2 1.6
05-02-2021 10.5 (15:10) 6.2 (00:00) 8.3 3.89 (08:20) 1.94 (08:20) 0.9 0 0.8 0.1 0
04-02-2021 13.5 (15:30) 7.4 (00:00) 10.5 8.33 (21:30) 5 (21:40) 0.4 0.4 0 0 0
03-02-2021 14.3 (14:50) 8.8 (00:00) 11.6 14.44 (07:40) 3.33 (04:50) 1.2 0 0 0 1.2
02-02-2021 15.9 (13:30) 7.8 (00:00) 11.8 11.11 (12:10) 2.22 (14:40) 0.4 0 0 0.4 0
01-02-2021 11.8 (12:40) 8.3 (00:00) 10.1 15 (08:00) 8.06 (08:50) 3.7 1 0 0 2.7
31-01-2021 12.1 (18:20) 5.9 (00:00) 9 15.56 (03:20) 8.06 (04:20) 5.4 2.8 2.4 0.2 0

Gráficas

Temp. máximas Temp. mínimas Temp. medias Precipitaciones Rachas de viento máximas Velocidades máximas media en intervalos de 10 minutos

Datos horarios

Fecha y hora oficial Temperatura (ºC) Velocidad del viento (km/h) Dirección del viento Racha (km/h) Dirección de racha Precipitación (mm) Presión (hPa) Tendencia (hPa) Humedad (%)
2021-03-01 23:00:00 9.3 10 Sudeste 27 Sudeste 0 972.5 0.4 69
2021-03-01 22:00:00 9.3 6 Sudeste 34 Este 0 972.1 0.5 70
2021-03-01 21:00:00 9.4 5 Sudeste 23 Este 0 972.1 0.9 69
2021-03-01 20:00:00 9.5 0 Calma 22 Sudeste 0 972.1 0.8 67
2021-03-01 19:00:00 9.8 11 Sudeste 24 Este 0 971.6 0.8 65
2021-03-01 18:00:00 10.1 7 Este 18 Sudeste 0 971.2 0.3 65
2021-03-01 17:00:00 10.2 2 Este 31 Este 0 971.3 0.4 65
2021-03-01 16:00:00 10.6 5 Sudeste 24 Sudeste 0 970.8 -0.9 63
2021-03-01 15:00:00 11.2 7 Este 37 Sudeste 0 970.9 -- 61
2021-03-01 14:00:00 11 6 Sudeste 31 Sudeste 0 970.9 -- 58
2021-03-01 13:00:00 9.8 10 Sudeste 36 Sudeste 0 971.7 -- 62
2021-03-01 12:00:00 9.5 10 Sudeste 35 Sudeste 0 972.1 -- 63
2021-03-01 11:00:00 9.4 9 Sudeste 31 Sudeste 0 971.9 -- 62
2021-03-01 10:00:00 9.1 7 Sudeste 33 Este 0 971.6 -- 64
2021-03-01 09:00:00 8.5 7 Sudeste 31 Sudeste 0 971.3 -- 66
2021-03-01 08:00:00 8 12 Sudeste 36 Este 0 970.7 -- 66
2021-03-01 07:00:00 8.2 5 Sudeste 33 Sudeste 0 970.7 -- 65
2021-03-01 06:00:00 8.2 2 Este 35 Sudeste 0 970.6 -- 66
2021-03-01 05:00:00 8.3 12 Sudeste 54 Sudeste 0 970.1 -- 67
2021-03-01 04:00:00 8 8 Sudeste 40 Este 0 970.2 -- 70
2021-03-01 03:00:00 7.9 12 Sudeste 39 Este 0 970.6 -- 67
2021-03-01 02:00:00 8.2 10 Sudeste 33 Sudeste 0 970.7 -- 62
2021-03-01 01:00:00 8.2 7 Sudeste 24 Este 0 970.3 -- 62
2021-03-01 00:00:00 8.8 13 Sudeste 40 Sudeste 0 969.9 -- 64
2021-02-28 23:00:00 9.2 17 Sudeste 41 Sudeste 0 970.2 0.4 66
2021-02-28 22:00:00 8.8 12 Sudeste 33 Sudeste 0.1 970.1 -- 77
2021-02-28 21:00:00 7 6 Sudeste 21 Sudeste 0 969.7 -- 99
2021-02-28 20:00:00 6.5 2 Este 15 Este 1.2 969.8 -- 99
2021-02-28 19:00:00 6.7 5 Este 14 Este 0.8 970 -- 99
2021-02-28 18:00:00 6.9 2 Nordeste 13 Este 0 969.7 -- 99
2021-02-28 17:00:00 6.5 8 Este 13 Este 0.4 969.9 -- 99
2021-02-28 16:00:00 6.8 5 Este 10 Este 0.4 970.2 -- 93
2021-02-28 15:00:00 6.2 0 Calma 9 Este 0.1 970.8 -- 95
2021-02-28 14:00:00 6.2 0 Calma 5 Este 0 971.4 -- 91
2021-02-28 13:00:00 6.3 0 Calma 8 Este 0 972.2 -- 89
2021-02-28 12:00:00 6.5 4 Este 7 Este 0 972.6 -- 91
2021-02-28 11:00:00 5 2 Este 6 Sudeste 0 972.9 -- 99
2021-02-28 10:00:00 4.6 3 Sudeste 5 Este 0 973 -- 99
2021-02-28 09:00:00 4.4 0 Calma 0 Calma 0 972.9 -- 99
2021-02-28 08:00:00 3.9 0 Calma 5 Oeste 0 973.2 0 99
2021-02-28 07:00:00 3.8 0 Calma 7 Sudoeste 0 973.3 -- 99
2021-02-28 06:00:00 3.1 3 Oeste 8 Oeste 0 973.1 -- 99
2021-02-28 05:00:00 3.1 0 Calma 6 Oeste 0 973.2 -- 98
2021-02-28 04:00:00 3.9 0 Calma 11 Oeste 0 973.8 -- 98
2021-02-28 03:00:00 3.6 3 Oeste 9 Oeste 0 974.1 -- 96
2021-02-28 02:00:00 4.6 5 Oeste 14 Oeste 0 974.7 -- 93
2021-02-28 01:00:00 4.9 9 Oeste 17 Noroeste 0 975 -- 91
2021-02-28 00:00:00 4.8 6 Oeste 14 Noroeste 0 975.6 -1.1 89
2021-02-27 23:00:00 4.9 7 Oeste 13 Oeste 0 976.3 -- 88
2021-02-27 22:00:00 4.9 4 Oeste 13 Oeste 0 976.6 -- 85
2021-02-27 21:00:00 4.9 3 Oeste 10 Oeste 0 976.7 -- 83
2021-02-27 20:00:00 4.6 4 Oeste 13 Norte 0 977.1 -- 79
2021-02-27 19:00:00 5.2 5 Noroeste 17 Nordeste 0 977 -- 73
2021-02-27 18:00:00 6.2 10 Norte 21 Noroeste 0 976.9 -- 66
2021-02-27 17:00:00 7.5 12 Norte 21 Norte 0 976.9 -- 64
2021-02-27 16:00:00 9.1 11 Noroeste 20 Noroeste 0 976.9 -- 57
2021-02-27 15:00:00 9.4 6 Norte 18 Norte 0 977.4 -- 61
2021-02-27 14:00:00 9.4 11 Norte 21 Noroeste 0 978.4 -- 64
2021-02-27 13:00:00 10.3 8 Norte 17 Norte 0 979.1 -- 60
2021-02-27 12:00:00 9.2 4 Norte 17 Noroeste 0 979.5 -- 70
2021-02-27 11:00:00 8.4 6 Noroeste 16 Noroeste 0 979.6 -- 76
2021-02-27 10:00:00 8.1 4 Nordeste 17 Nordeste 0 979.6 -- 81
2021-02-27 09:00:00 8.1 2 Norte 13 Norte 0 979.5 -- 84
2021-02-27 08:00:00 7.9 3 Nordeste 15 Nordeste 0 979.3 -0.2 87
2021-02-27 07:00:00 7.6 0 Calma 7 Noroeste 0 979.2 -- 94
2021-02-27 06:00:00 8 3 Oeste 13 Nordeste 0 979.3 -- 89
2021-02-27 05:00:00 8.1 0 Calma 10 Norte 0 979.5 -- 87
2021-02-27 04:00:00 7.9 0 Calma 9 Norte 0 979.6 -- 90
2021-02-27 03:00:00 8 0 Calma 9 Nordeste 0 979.9 -- 90
2021-02-27 02:00:00 8 2 Nordeste 7 Norte 0 980.4 -- 90
2021-02-27 01:00:00 8 0 Calma 13 Norte 0 980.4 -- 90
2021-02-27 00:00:00 7.9 3 Norte 12 Norte 0 980.6 -- 90
2021-02-26 23:00:00 8.1 3 Norte 15 Nordeste 0 980.7 0.1 91
2021-02-26 22:00:00 8 2 Norte 12 Nordeste 0 980.5 -- 91
2021-02-26 21:00:00 8 0 Calma 11 Noroeste 0 980.3 -- 91
2021-02-26 20:00:00 8.3 3 Norte 14 Norte 0 980.6 0.7 90
2021-02-26 19:00:00 8.5 5 Nordeste 15 Nordeste 0 980.2 -- 88
2021-02-26 18:00:00 8.9 5 Norte 19 Noroeste 0 980 -0.2 86
2021-02-26 17:00:00 9.2 7 Norte 14 Norte 0 979.9 -- 86
2021-02-26 16:00:00 9.9 4 Norte 13 Noroeste 0 980.1 -- 81
2021-02-26 15:00:00 10.4 6 Norte 13 Norte 0 980.2 -- 78
2021-02-26 14:00:00 9.9 3 Norte 11 Nordeste 0 980.9 -- 83
2021-02-26 13:00:00 9.6 3 Norte 11 Noroeste 0 981.5 -- 84
2021-02-26 12:00:00 9.5 4 Norte 9 Noroeste 0 981.5 -- 83
2021-02-26 11:00:00 9.1 0 Calma 7 Noroeste 0 981.3 -- 89
2021-02-26 10:00:00 9 0 Calma 7 Noroeste 0 981.2 -- 95
2021-02-26 09:00:00 8.4 0 Calma 4 Norte 0 980.9 -- 97
2021-02-26 08:00:00 8.3 2 Oeste 7 Oeste 0 980.6 -- 97
2021-02-26 07:00:00 8.3 2 Norte 8 Norte 0 980.4 -- 97
2021-02-26 06:00:00 8.4 0 Calma 5 Norte 0 980.4 -- 96
2021-02-26 05:00:00 8.4 0 Calma 10 Noroeste 0 980.3 -- 96
2021-02-26 04:00:00 8.7 0 Calma 8 Noroeste 0 980.7 -- 94
2021-02-26 03:00:00 8.7 5 Oeste 11 Oeste 0 980.9 -- 92
2021-02-26 02:00:00 8.9 4 Oeste 6 Oeste 0 980.9 -- 92
2021-02-26 01:00:00 8.8 0 Calma 4 Este 0 981 -- 91
2021-02-26 00:00:00 9 0 Calma 4 Oeste 0 981 -- 90
2021-02-25 23:00:00 9.4 0 Calma 6 Norte 0 980.9 1 86
2021-02-25 22:00:00 9.4 0 Calma 10 Noroeste 0 980.5 -- 88
2021-02-25 21:00:00 9.2 2 Norte 8 Nordeste 0 980.2 -- 90
2021-02-25 20:00:00 9.3 3 Norte 13 Norte 0 979.9 -- 89
2021-02-25 19:00:00 9.7 5 Norte 14 Norte 0 978.9 -- 85
2021-02-25 18:00:00 11.6 0 Calma 6 Nordeste 0 977.9 -- 67
2021-02-25 17:00:00 12.6 0 Calma 11 Este 0 977.6 -- 62
2021-02-25 16:00:00 12.6 3 Sudeste 12 Este 0 977.3 -- 60
2021-02-25 15:00:00 12.6 4 Sudeste 16 Este 0 977.5 -- 59
2021-02-25 14:00:00 12.3 5 Sudeste 19 Este 0 977.8 -- 59
2021-02-25 13:00:00 11.7 5 Este 23 Este 0 978.3 -- 62
2021-02-25 12:00:00 11.1 8 Sudeste 24 Sudeste 0 978.2 -- 64
2021-02-25 11:00:00 9.8 9 Este 18 Este 0 978.1 -- 66
2021-02-25 10:00:00 8.9 10 Sudeste 22 Este 0 978 -- 67
2021-02-25 09:00:00 8.6 9 Este 26 Sudeste 0 977.4 -- 67
2021-02-25 08:00:00 8.5 6 Sudeste 21 Sudeste 0 976.5 -- 67
2021-02-25 07:00:00 8.3 4 Este 23 Sudeste 0 976.4 -- 67
2021-02-25 06:00:00 8.9 5 Este 36 Sudeste 0 976.2 -- 67
2021-02-25 05:00:00 9.3 5 Sudeste 24 Sudeste 0 976 -- 68
2021-02-25 04:00:00 9.9 6 Sudeste 33 Sudeste 0 975.9 -- 68
2021-02-25 03:00:00 10.4 0 Calma 21 Sudeste 0 976.1 -- 70
2021-02-25 02:00:00 11 3 Sudeste 23 Sudeste 0 976.1 -- 71
2021-02-25 01:00:00 11.4 7 Sudeste 27 Sudeste 0 976.4 -- 70
2021-02-25 00:00:00 11.8 5 Sudeste 26 Este 0 976.3 -- 68
2021-02-24 23:00:00 12.4 8 Sudeste 33 Sudeste 0 976.2 -- 68
2021-02-24 22:00:00 12.6 14 Sudeste 40 Este 0 975.8 -0.2 67
2021-02-24 21:00:00 12.8 16 Sudeste 47 Sudeste 0 976.1 -- 67
2021-02-24 20:00:00 12.7 9 Sudeste 31 Sudeste 0 976.3 0.6 67
2021-02-24 19:00:00 13.3 8 Este 30 Sudeste 0 976 -- 64
2021-02-24 18:00:00 14 9 Sudeste 22 Este 0 975.8 -- 60
2021-02-24 17:00:00 14.5 10 Sudeste 25 Sudeste 0 975.7 -- 58
2021-02-24 16:00:00 14.9 16 Sudeste 36 Sudeste 0 975.9 -- 55
2021-02-24 15:00:00 14.7 14 Sudeste 36 Sudeste 0 976.5 -- 54
2021-02-24 14:00:00 14.6 17 Sudeste 37 Este 0 976.9 -- 54
2021-02-24 13:00:00 14.2 9 Sudeste 33 Este 0 977.5 -- 57
2021-02-24 12:00:00 13.5 5 Sudeste 37 Sudeste 0 978.6 -- 58
2021-02-24 11:00:00 12.6 6 Sudeste 26 Sudeste 0 979.1 -- 61
2021-02-24 10:00:00 11.5 13 Sudeste 32 Sudeste 0 979.4 0.3 64
2021-02-24 09:00:00 10.3 8 Sudeste 27 Sudeste 0 979.4 -- 65
2021-02-24 08:00:00 9.8 10 Sudeste 23 Sudeste 0 979 0.7 67
2021-02-24 07:00:00 9.8 4 Sudeste 15 Este 0 979.1 -- 67
2021-02-24 06:00:00 10.1 2 Este 35 Sudeste 0 978.6 -0.5 67
2021-02-24 05:00:00 10.2 9 Sudeste 38 Sudeste 0 978.3 -- 68
2021-02-24 04:00:00 10.5 13 Sudeste 43 Este 0 978.6 -- 67
2021-02-24 03:00:00 10.8 11 Sudeste 43 Este 0 979.1 -- 67
2021-02-24 02:00:00 10.7 8 Sudeste 35 Sudeste 0 979.8 -- 67
2021-02-24 01:00:00 10.8 5 Sudeste 28 Sudeste 0 980.1 -- 67
2021-02-24 00:00:00 10.5 5 Este 24 Este 0 980.7 -- 65
2021-02-23 23:00:00 10.5 2 Sur 27 Este 0 980.9 -- 66
2021-02-23 22:00:00 11 8 Sudeste 32 Este 0 980.6 1 64
2021-02-23 21:00:00 11 9 Sudeste 36 Este 0 980.2 -- 63
2021-02-23 20:00:00 11.2 6 Sudeste 31 Sudeste 0 980.1 -- 60
2021-02-23 19:00:00 11.5 7 Sudeste 29 Este 0 979.6 0.7 55
2021-02-23 18:00:00 12.1 6 Sudeste 26 Sudeste 0 979.3 -- 51
2021-02-23 17:00:00 12.6 10 Sudeste 32 Sudeste 0 979 -- 46
2021-02-23 16:00:00 13 10 Sudeste 33 Este 0 978.9 -- 46
2021-02-23 15:00:00 13 10 Sudeste 35 Este 0 978.7 -- 47
2021-02-23 14:00:00 12.6 12 Sudeste 38 Este 0 978.8 -- 50
2021-02-23 13:00:00 11.8 8 Sudeste 41 Sudeste 0 979.2 -- 55
2021-02-23 12:00:00 10.5 14 Sudeste 36 Sudoeste 0 979.4 -- 60
2021-02-23 11:00:00 10.1 17 Sudeste 35 Este 0 978.9 -- 61
2021-02-23 10:00:00 9.5 11 Este 30 Sudeste 0 978.9 -- 66
2021-02-23 09:00:00 7.7 13 Sudeste 37 Sudeste 0 978.4 -- 71
2021-02-23 08:00:00 6.6 4 Sudeste 20 Sudeste 0 977.6 -- 78
2021-02-23 07:00:00 5.8 4 Sudeste 14 Sudeste 0 977.2 -- 85
2021-02-23 06:00:00 5.8 0 Calma 19 Este 0 976.9 -- 91
2021-02-23 05:00:00 5.7 0 Calma 12 Sur 0 976.8 -- 98
2021-02-23 04:00:00 4.5 0 Calma 7 Noroeste 0 976.3 -- 99
2021-02-23 03:00:00 3.9 0 Calma 6 Sudoeste 0 976 -- 99
2021-02-23 02:00:00 3 0 Calma 6 Sudoeste 0 975.8 -- 99
2021-02-23 01:00:00 3.5 0 Calma 5 Sudoeste 0 975.2 -- 99
2021-02-23 00:00:00 4.2 0 Calma 5 Sudoeste 0 974.7 0.7 99
2021-02-22 23:00:00 5.4 0 Calma 9 Sudeste 0 974.3 -- 99
2021-02-22 22:00:00 5.7 4 Este 8 Este 0 974.5 -- 99
2021-02-22 21:00:00 6 2 Sudeste 5 Sudeste 0 974 -- 99
2021-02-22 20:00:00 6.2 0 Calma 5 Oeste 0 973.8 -- 99
2021-02-22 19:00:00 6.2 0 Calma 11 Oeste 0 972.7 -- 99
2021-02-22 18:00:00 6.7 2 Este 6 Norte 0 971.8 -- 98
2021-02-22 17:00:00 7.2 2 Noroeste 7 Noroeste 0 970.7 -- 94
2021-02-22 16:00:00 7.1 6 Oeste 15 Noroeste 0.1 969.9 -- 90
2021-02-22 15:00:00 6.1 4 Norte 13 Norte 0.1 969.4 -- 93
2021-02-22 14:00:00 6.7 3 Noroeste 17 Oeste 0.1 968.7 -- 94
2021-02-22 13:00:00 5.9 10 Oeste 19 Oeste 1 969 -- 99
2021-02-22 12:00:00 5.5 3 Oeste 9 Oeste 0.7 968.4 -- 99
2021-02-22 11:00:00 4.8 0 Calma 6 Nordeste 1.6 967.8 -- 99
2021-02-22 10:00:00 4.4 0 Calma 9 Oeste 1.5 967.1 -- 99
2021-02-22 09:00:00 4.2 3 Oeste 17 Oeste 2 965.6 -- 99
2021-02-22 08:00:00 4.1 4 Oeste 18 Oeste 3.9 964.5 -- 99
2021-02-22 07:00:00 4 12 Oeste 24 Oeste 10.2 963.2 1.4 99
2021-02-22 06:00:00 3.9 11 Oeste 22 Oeste 4.3 962.7 -- 99
2021-02-22 05:00:00 3.8 11 Oeste 18 Oeste 6 962.1 -- 99
2021-02-22 04:00:00 4 3 Oeste 15 Oeste 3.3 961.8 -- 99
2021-02-22 03:00:00 3.9 10 Oeste 22 Oeste 3.8 961.7 -- 99
2021-02-22 02:00:00 4 11 Oeste 31 Oeste 3.5 961.5 -- 99
2021-02-22 01:00:00 4.1 17 Oeste 35 Oeste 4.6 960.8 -- 99
2021-02-22 00:00:00 5.1 15 Oeste 33 Noroeste 2.8 959.9 -- 99
2021-02-21 23:00:00 7 20 Oeste 34 Oeste 0 959 -- 90
2021-02-21 22:00:00 12.1 9 Sudeste 22 Sudeste 0 958.1 1.2 61
2021-02-21 21:00:00 12 12 Este 31 Este 0 957.5 -- 63
2021-02-21 20:00:00 11.5 11 Este 24 Este 0 957 0.5 67
2021-02-21 19:00:00 11.4 3 Este 33 Este 0 956.9 -- 67
2021-02-21 18:00:00 11 10 Sudeste 30 Sudeste 0 956.5 -- 68
2021-02-21 17:00:00 11.1 10 Sudeste 30 Este 0 956.5 -- 65
2021-02-21 16:00:00 11.2 12 Sudeste 35 Sudeste 0 956 -- 62
2021-02-21 15:00:00 11.4 15 Sudeste 53 Sudeste 0 955.9 -- 56
2021-02-21 14:00:00 11.8 13 Este 43 Sudeste 0 956.2 -- 49
2021-02-21 13:00:00 12.8 9 Este 26 Este 0 957.1 -- 44
2021-02-21 12:00:00 12.7 3 Noroeste 36 Este 0 957.6 -- 43
2021-02-21 11:00:00 11.1 20 Este 46 Este 0 957.4 -- 44
2021-02-21 10:00:00 10.8 19 Este 47 Este 0 957.4 -- 45
2021-02-21 09:00:00 10.1 17 Sudeste 42 Sudeste 0 957.6 -- 46
2021-02-21 08:00:00 10 17 Sudeste 46 Sudeste 0 956.9 -0.8 46
2021-02-21 07:00:00 9.9 20 Sudeste 57 Este 0 956.7 -- 47
2021-02-21 06:00:00 9.9 17 Este 41 Este 0 957.1 -- 47
2021-02-21 05:00:00 9.8 7 Sudeste 31 Este 0 957.7 -- 46
2021-02-21 04:00:00 10 2 Sudeste 22 Este 0 958.4 -- 47
2021-02-21 03:00:00 10.6 0 Calma 42 Este 0 958.8 -- 46
2021-02-21 02:00:00 11 20 Sudeste 39 Sudeste 0 958.2 -- 45
2021-02-21 01:00:00 11.6 12 Sudeste 32 Sudeste 0 958.3 -- 46
2021-02-21 00:00:00 12.2 17 Sudeste 40 Sudeste 0 958.6 -0.2 45
2021-02-20 23:00:00 13.1 13 Sudeste 32 Sudeste 0 959 -- 43
2021-02-20 22:00:00 13.7 13 Sudeste 35 Sudeste 0 958.6 -- 41
2021-02-20 21:00:00 13.9 10 Sudeste 28 Sudeste 0 958.8 -- 42
2021-02-20 20:00:00 14.5 10 Sudeste 41 Sudeste 0 959.2 1.2 43
2021-02-20 19:00:00 15.7 10 Sudeste 42 Sudeste 0 958.6 -- 40
2021-02-20 18:00:00 16.2 13 Sudeste 40 Sudeste 0 958 -- 37
2021-02-20 17:00:00 16.6 10 Sudeste 41 Sudeste 0 958 -- 35
2021-02-20 16:00:00 17.1 8 Sudeste 46 Sudeste 0 958 -- 34
2021-02-20 15:00:00 17 13 Sudeste 45 Sudeste 0 958.6 -- 34
2021-02-20 14:00:00 17.3 13 Sudeste 45 Este 0 959 -- 34
2021-02-20 13:00:00 16.9 18 Sudeste 44 Sudeste 0 959.3 -- 34
2021-02-20 12:00:00 15.9 19 Sudeste 45 Sudeste 0 960.1 -- 36
2021-02-20 11:00:00 14.4 17 Sudeste 38 Sudeste 0 960.3 -- 38
2021-02-20 10:00:00 13.1 11 Sudeste 41 Sudeste 0 960.4 -- 38
2021-02-20 09:00:00 12.9 12 Sudeste 38 Sudeste 0 960 0.3 38
2021-02-20 08:00:00 12.9 12 Sudeste 38 Sudeste 0 959.6 -- 38
2021-02-20 07:00:00 13 6 Sudeste 35 Sudeste 0 959.5 -- 37
2021-02-20 06:00:00 12.6 10 Sudeste 33 Este 0 959.7 -0.7 39
2021-02-20 05:00:00 12.4 14 Sudeste 41 Sudeste 0 960 -- 39
2021-02-20 04:00:00 12.8 16 Sudeste 42 Este 0 959.9 -1.6 39
2021-02-20 03:00:00 13 18 Sudeste 46 Sudeste 0 960.4 -- 39
2021-02-20 02:00:00 13.6 14 Sudeste 39 Sudeste 0 961 -- 38
2021-02-20 01:00:00 13.5 5 Sudeste 36 Sudeste 0 961.5 -- 38
2021-02-20 00:00:00 14 8 Sudeste 32 Sudeste 0 961.6 -- 38
2021-02-19 23:00:00 13.7 11 Sudeste 39 Sudeste 0 962 -0.7 40
2021-02-19 22:00:00 14 17 Sudeste 45 Sudeste 0 961.8 -- 40
2021-02-19 21:00:00 14.5 14 Sudeste 37 Este 0 962.4 -- 40
2021-02-19 20:00:00 15.1 7 Sudeste 34 Este 0 962.7 -- 38
2021-02-19 19:00:00 15.6 3 Sudeste 23 Sudeste 0 962.5 -- 38
2021-02-19 18:00:00 16 9 Sudeste 28 Sudeste 0 962.5 -- 40
2021-02-19 17:00:00 16.6 6 Sudeste 22 Sudeste 0 962.7 -1.2 40
2021-02-19 16:00:00 16.4 5 Sudeste 26 Sudeste 0 962.8 -- 40
2021-02-19 15:00:00 16.7 5 Sur 29 Este 0 963.2 -- 35
2021-02-19 14:00:00 16.8 9 Sudeste 30 Sudeste 0 963.9 -- 34
2021-02-19 13:00:00 16.3 3 Sudeste 28 Sur 0 964.6 -- 34
2021-02-19 12:00:00 15.4 5 Sudeste 22 Sudeste 0 965 -0.4 37
2021-02-19 11:00:00 14.9 3 Sudeste 27 Sur 0 965.2 -- 39
2021-02-19 10:00:00 13.4 5 Sur 32 Sudeste 0 965.3 -- 43
2021-02-19 09:00:00 12.8 9 Sur 41 Sur 0 965.4 -- 44
2021-02-19 08:00:00 12.6 9 Sudeste 40 Sur 0 964.5 -- 43
2021-02-19 07:00:00 12.6 8 Sudeste 35 Sur 0 964.9 -- 46
2021-02-19 06:00:00 12.7 8 Sur 32 Sudoeste 0 964.6 -- 49
2021-02-19 05:00:00 12.7 5 Sur 36 Sudeste 0 964.6 -- 50
2021-02-19 04:00:00 12.3 5 Sudeste 24 Sudeste 0 964.9 -- 52
2021-02-19 03:00:00 12.3 5 Sudeste 30 Sur 0 965 -- 54
2021-02-19 02:00:00 12.3 3 Sur 31 Sur 0 965.4 -- 56
2021-02-19 01:00:00 12.1 9 Sur 44 Sudeste 0 965.7 -- 58
2021-02-19 00:00:00 7.7 5 Sudeste 16 Sudeste 0 966.1 -- 96
2021-02-18 23:00:00 7 6 Sudeste 11 Este 0 966.5 -- 99
2021-02-18 22:00:00 7.1 0 Calma 6 Este 0 966.7 -- 98
2021-02-18 21:00:00 7.4 0 Calma 5 Norte 0 966.7 -- 96
2021-02-18 20:00:00 8.2 0 Calma 9 Norte 0 966.5 1.7 93
2021-02-18 19:00:00 8.9 3 Norte 21 Oeste 0 965.7 -- 90
2021-02-18 18:00:00 10.2 6 Noroeste 28 Oeste 0 965.2 -- 83
2021-02-18 17:00:00 12.5 9 Oeste 24 Oeste 0 964.8 -- 60
2021-02-18 16:00:00 14.3 8 Noroeste 31 Oeste 0 964.2 -- 46
2021-02-18 15:00:00 14.6 3 Sur 41 Noroeste 0 964.2 -- 41
2021-02-18 14:00:00 15.7 5 Oeste 45 Oeste 0 964.4 -- 34
2021-02-18 13:00:00 15.9 3 Sur 27 Sudoeste 0 964.4 -- 34
2021-02-18 12:00:00 15.9 2 Sudoeste 32 Oeste 0 964.4 -- 36
2021-02-18 11:00:00 13.1 9 Sudeste 22 Sur 0 963.6 -- 49
2021-02-18 10:00:00 11.6 0 Calma 17 Sudeste 0 963.3 -- 55
2021-02-18 09:00:00 10.4 6 Sudeste 23 Este 0 963 -- 58
2021-02-18 08:00:00 10.3 8 Sudeste 21 Sudeste 0 962.5 -- 59
2021-02-18 07:00:00 10.5 8 Sudeste 20 Sudeste 0 962.8 -- 61
2021-02-18 06:00:00 10.3 9 Sudeste 23 Este 0 963 -- 64
2021-02-18 05:00:00 10.5 12 Sudeste 23 Sudeste 0 963.4 -- 64
2021-02-18 04:00:00 10.6 12 Sudeste 28 Sudeste 0 963.9 -- 64
2021-02-18 03:00:00 11.1 9 Sudeste 22 Sudeste 0 964 -- 62
2021-02-18 02:00:00 11.4 10 Sudeste 27 Este 0 964.4 -- 63
2021-02-18 01:00:00 11.6 10 Sudeste 20 Sudeste 0 964.6 -- 63
2021-02-18 00:00:00 11.7 8 Sudeste 27 Sudeste 0 964.8 -- 65
2021-02-17 23:00:00 11.8 9 Sudeste 28 Sudeste 0 965.1 -1.2 66
2021-02-17 22:00:00 12.1 11 Sudeste 23 Sudeste 0 965.9 -- 64
2021-02-17 21:00:00 12.1 9 Sudeste 22 Sudeste 0 966 -- 64
2021-02-17 20:00:00 12.2 5 Sudeste 18 Este 0 966.3 -- 65
2021-02-17 19:00:00 12.6 4 Sudeste 20 Sudeste 0 966.6 -- 64
2021-02-17 18:00:00 13 5 Sudeste 19 Sudeste 0 967 -- 61
2021-02-17 17:00:00 13.5 3 Sudeste 16 Sudeste 0 967.3 -- 58
2021-02-17 16:00:00 14.3 5 Sur 35 Sur 0 967.5 -- 50
2021-02-17 15:00:00 14.2 2 Sudoeste 25 Oeste 0 968 -- 50
2021-02-17 14:00:00 15.2 4 Sur 44 Sur 0 969.1 -- 49
2021-02-17 13:00:00 13.6 7 Sur 26 Sudeste 0 969.8 -- 52
2021-02-17 12:00:00 13.1 5 Sur 22 Este 0 970.5 -- 58
2021-02-17 11:00:00 11.2 4 Sudeste 19 Sur 0 970.8 -- 66
2021-02-17 10:00:00 11.7 0 Calma 16 Sudoeste 0 971 -- 62
2021-02-17 09:00:00 9.7 4 Sudeste 15 Sudeste 0 971 -- 67
2021-02-17 08:00:00 9 0 Calma 6 Sudeste 0 970.9 -- 74
2021-02-17 07:00:00 9.6 4 Sudeste 10 Sudeste 0 971.1 -- 70
2021-02-17 06:00:00 9 0 Calma 9 Sudeste 0 971.4 -- 74
2021-02-17 05:00:00 8.5 0 Calma 12 Sudeste 0 971.4 -- 76
2021-02-17 04:00:00 7.2 0 Calma 5 Sudeste 0 971.6 -- 86
2021-02-17 03:00:00 6.9 0 Calma 7 Sudoeste 0 972 -- 94
2021-02-17 02:00:00 5.8 0 Calma 6 Oeste 0 972.4 -- 96
2021-02-17 01:00:00 6.2 0 Calma 3 Oeste 0 972.8 -- 96
2021-02-17 00:00:00 6.2 0 Calma 6 Oeste 0 973 -- 95
2021-02-16 23:00:00 6.8 0 Calma 0 Calma 0 973 -- 94
2021-02-16 22:00:00 7.5 0 Calma 3 Sudeste 0 972.9 -- 91
2021-02-16 21:00:00 8.4 0 Calma 3 Noroeste 0 972.8 -- 88
2021-02-16 20:00:00 9 0 Calma 7 Este 0 972.8 -- 83
2021-02-16 19:00:00 9.9 0 Calma 7 Sudeste 0 972.8 -- 77
2021-02-16 18:00:00 10.5 0 Calma 13 Noroeste 0 972.4 -- 75
2021-02-16 17:00:00 10.9 5 Oeste 24 Oeste 0 972.5 -- 71
2021-02-16 16:00:00 12.7 2 Sudeste 17 Noroeste 0 972.2 -- 55
2021-02-16 15:00:00 14 4 Oeste 23 Noroeste 0 972.4 -- 49
2021-02-16 14:00:00 14.8 2 Sudoeste 22 Oeste 0 972.8 -- 47
2021-02-16 13:00:00 13.8 10 Noroeste 38 Oeste 0 972.9 -- 46
2021-02-16 12:00:00 11.6 4 Este 24 Sudeste 0 971.4 -- 59
2021-02-16 11:00:00 9.6 13 Sudeste 27 Sudeste 0 971.7 -- 68
2021-02-16 10:00:00 8.9 15 Sudeste 31 Sudeste 0 971.4 -- 69
2021-02-16 09:00:00 7.8 7 Sudeste 24 Sudeste 0 971.9 -- 74
2021-02-16 08:00:00 7.2 5 Este 31 Sudeste 0 971.1 -- 76
2021-02-16 07:00:00 7.9 15 Sudeste 33 Sudeste 0 971 -- 73
2021-02-16 06:00:00 8.1 22 Sudeste 44 Sudeste 0 971.9 -- 73
2021-02-16 05:00:00 8.2 19 Sudeste 34 Sudeste 0 972.3 -- 72
2021-02-16 04:00:00 8.7 12 Sudeste 41 Sudeste 0 972.7 -- 71
2021-02-16 03:00:00 8.6 14 Sudeste 33 Este 0 973.6 -- 73
2021-02-16 02:00:00 8.5 16 Sudeste 37 Este 0 974.2 -- 75
2021-02-16 01:00:00 8.5 9 Sudeste 30 Sudeste 0 974.8 -- 76
2021-02-16 00:00:00 8.3 9 Sudeste 30 Este 0 975 -- 78
2021-02-15 23:00:00 8.2 7 Este 33 Sudeste 0 975 -- 77
2021-02-15 22:00:00 8.4 11 Sudeste 32 Sudeste 0 975.3 -- 75
2021-02-15 21:00:00 8.6 11 Sudeste 29 Este 0 975.6 -- 72
2021-02-15 20:00:00 8.2 9 Sudeste 22 Este 0 975.7 -- 76
2021-02-15 19:00:00 8.3 6 Sudeste 30 Este 0 975.9 -- 76
2021-02-15 18:00:00 9 14 Sudeste 33 Este 0 975.9 -- 70
2021-02-15 17:00:00 9.5 12 Sudeste 37 Sudeste 0 976.2 -- 67
2021-02-15 16:00:00 10.1 15 Sudeste 36 Sudeste 0 976.5 -- 63
2021-02-15 15:00:00 10.6 18 Sudeste 36 Este 0 976.9 -- 60
2021-02-15 14:00:00 11.5 12 Sudeste 30 Sudeste 0 977.6 -- 58
2021-02-15 13:00:00 11.2 11 Sudeste 27 Sudeste 0 978.3 -- 60
2021-02-15 12:00:00 11 6 Sudeste 30 Este 0 978.9 -- 64
2021-02-15 11:00:00 8.6 15 Sudeste 34 Este 0 978.9 -- 72
2021-02-15 10:00:00 7.2 6 Este 21 Este 0 979.1 -- 79
2021-02-15 09:00:00 6.5 8 Sudeste 19 Este 0 978.8 -- 82
2021-02-15 08:00:00 5.6 5 Este 22 Sudeste 0 978.4 -- 83
2021-02-15 07:00:00 5.4 6 Este 28 Este 0 978.2 -- 84
2021-02-15 06:00:00 6 13 Sudeste 32 Sudeste 0 978.3 -- 81
2021-02-15 05:00:00 6.4 15 Sudeste 39 Sudeste 0 978 -- 79
2021-02-15 04:00:00 6.8 19 Sudeste 35 Este 0 978 -- 79
2021-02-15 03:00:00 6.7 14 Sudeste 33 Sudeste 0 978.3 -- 80
2021-02-15 02:00:00 7 14 Sudeste 35 Sudeste 0 978.3 -- 82
2021-02-15 01:00:00 7.2 19 Sudeste 44 Este 0 977.7 -- 82
2021-02-15 00:00:00 7.7 17 Sudeste 39 Sudeste 0 977.5 -- 79
2021-02-14 23:00:00 8.3 13 Sudeste 32 Sudeste 0 977.5 -- 75
2021-02-14 22:00:00 8.8 14 Sudeste 37 Sudeste 0 977.1 -- 73
2021-02-14 21:00:00 9.3 10 Sudeste 30 Sudeste 0 977.2 -- 70
2021-02-14 20:00:00 9.7 13 Sudeste 36 Este 0 977 -- 69
2021-02-14 19:00:00 9.9 13 Sudeste 33 Sudeste 0 976.7 0.9 67
2021-02-14 18:00:00 10.4 8 Sudeste 30 Sudeste 0 976.5 1 65
2021-02-14 17:00:00 11.2 18 Sudeste 35 Sudeste 0 976.2 -- 60
2021-02-14 16:00:00 12.4 12 Sudeste 31 Este 0 975.8 -- 55
2021-02-14 15:00:00 12.7 15 Sudeste 35 Sudeste 0 975.5 -- 52
2021-02-14 14:00:00 12.7 13 Sudeste 37 Sudeste 0 976 -- 55
2021-02-14 13:00:00 11.3 18 Sudeste 36 Sudeste 0 976.4 -- 58
2021-02-14 12:00:00 10.9 14 Sudeste 33 Este 0 976.8 -- 64
2021-02-14 11:00:00 9.2 5 Este 15 Sudeste 0 977 -- 83
2021-02-14 10:00:00 5.5 0 Calma 9 Este 0 977 -- 99
2021-02-14 09:00:00 3.7 0 Calma -- -- 0.1 976.7 -- 99
2021-02-14 08:00:00 3 0 Calma 2 Sudeste 0 976 -- 99
2021-02-14 07:00:00 3.4 0 Calma 5 Sudoeste 0 975.8 -- 99
2021-02-14 06:00:00 3.6 0 Calma 0 Calma 0 975.6 -- 99
2021-02-14 05:00:00 3.6 0 Calma 0 Calma 0 975.7 -- 99
2021-02-14 04:00:00 3.8 0 Calma -- -- 0 975.9 -- 99
2021-02-14 03:00:00 3.9 0 Calma 0 Calma 0 976.2 -- 99
2021-02-14 02:00:00 4.4 0 Calma -- -- 0 976.3 -- 99
2021-02-14 01:00:00 4.5 0 Calma 0 Calma 0 976.5 -- 99
2021-02-14 00:00:00 4.8 0 Calma 0 Calma 0 976.5 -- 99
2021-02-13 23:00:00 5.3 0 Calma 4 Sudoeste 0 976.9 -- 98
2021-02-13 22:00:00 5.2 0 Calma 5 Sudoeste 0 976.6 -- 95
2021-02-13 21:00:00 5.8 0 Calma 2 Sudoeste 0 976.4 -- 93
2021-02-13 20:00:00 6.7 0 Calma 7 Sudoeste 0 976.4 -- 88
2021-02-13 19:00:00 8.2 0 Calma 8 Oeste 0 976 -- 81
2021-02-13 18:00:00 9.5 0 Calma 11 Oeste 0 975.4 -- 72
2021-02-13 17:00:00 10.4 3 Oeste 10 Sudoeste 0 975.1 -- 66
2021-02-13 16:00:00 10.6 0 Calma 12 Oeste 0 974.4 -- 72
2021-02-13 15:00:00 10.3 7 Noroeste 13 Oeste 0 974.6 -- 74
2021-02-13 14:00:00 9.8 9 Oeste 17 Oeste 0 974.6 -- 77
2021-02-13 13:00:00 9.9 9 Oeste 13 Oeste 0 974.7 -- 78
2021-02-13 08:00:00 3.4 0 Calma 6 Sudoeste 0 973.6 0.5 99
2021-02-13 07:00:00 4 0 Calma 5 Sudoeste 0 973.4 0.1 99
2021-02-13 06:00:00 4.6 0 Calma 5 Sudoeste 0 973.3 0 99
2021-02-13 05:00:00 5 0 Calma 4 Sudoeste 0 973.1 -0.4 99
2021-02-13 04:00:00 5.8 0 Calma 2 Sudoeste 0 973.3 0.1 99
2021-02-13 03:00:00 6.2 0 Calma 9 Oeste 0 973.3 0.1 99
2021-02-13 02:00:00 6.6 0 Calma 13 Oeste 0 973.5 0.4 98
2021-02-13 01:00:00 7.2 3 Oeste 17 Oeste 0 973.2 0.2 94
2021-02-13 00:00:00 7.8 10 Oeste 18 Oeste 0 973.2 0.8 95
2021-02-12 23:00:00 7.9 8 Oeste 20 Noroeste 0 973.1 1.2 94
2021-02-12 22:00:00 8.2 13 Noroeste 30 Noroeste 0 973 1.7 88
2021-02-12 21:00:00 7.9 12 Oeste 33 Oeste 0 972.4 2.1 97
2021-02-12 20:00:00 8 23 Oeste 37 Oeste 0.3 971.9 2.5 99
2021-02-12 19:00:00 8.1 19 Oeste 38 Oeste 1 971.3 2.6 99
2021-02-12 18:00:00 8.5 18 Oeste 37 Oeste 1.2 970.3 2.4 99
2021-02-12 17:00:00 8.9 19 Oeste 39 Oeste 1.7 969.4 1.8 98
2021-02-12 16:00:00 8.9 14 Oeste 28 Noroeste 6.2 968.7 1.2 99
2021-02-12 15:00:00 8.7 18 Oeste 42 Oeste 2.7 967.9 1.1 99
2021-02-12 14:00:00 8.5 15 Oeste 33 Oeste 1.9 967.6 1.7 99
2021-02-12 13:00:00 8.4 17 Oeste 39 Oeste 0.9 967.5 2.3 98
2021-02-12 12:00:00 9 23 Oeste 42 Oeste 0.1 966.8 2.1 93
2021-02-12 11:00:00 9.2 12 Oeste 28 Oeste 1 965.9 2 99
2021-02-12 10:00:00 9.5 4 Oeste 10 Oeste 0.1 965.2 1.9 99
2021-02-12 09:00:00 9.4 5 Oeste 17 Oeste 0.8 964.7 -- 99
2021-02-12 08:00:00 9.5 6 Oeste 24 Noroeste 1.5 963.9 -- 99
2021-02-12 07:00:00 10.2 17 Oeste 35 Sudoeste 0.4 963.3 -- 85
2021-02-12 06:00:00 12.2 4 Oeste 39 Sudoeste 0 962.6 -- 64
2021-02-12 05:00:00 13.3 6 Sur 34 Sur 0 962.3 -- 60
2021-02-12 04:00:00 12.3 7 Sur 21 Sudeste 0 962.5 -- 66
2021-02-12 03:00:00 12.9 9 Sudeste 20 Sudeste 0 963 -- 64
2021-02-12 02:00:00 11 2 Este 11 Sudeste 0 963.6 -- 73
2021-02-12 01:00:00 11.4 3 Sudeste 20 Sudeste 0 963.9 -- 71
2021-02-12 00:00:00 12 7 Sudeste 28 Sudeste 0 964 -- 69
2021-02-11 23:00:00 13 3 Sur 17 Sudeste 0 964.4 -- 67
2021-02-11 22:00:00 11.8 0 Calma 9 Sudeste 0 965.1 -- 70
2021-02-11 21:00:00 12.8 0 Calma 13 Oeste 0 965.2 -- 65
2021-02-11 20:00:00 12.5 0 Calma 11 Noroeste 0 965.3 -- 65
2021-02-11 19:00:00 12.7 0 Calma 17 Noroeste 0 965.3 -- 62
2021-02-11 18:00:00 13.7 3 Oeste 15 Noroeste 0 965.4 -- 58
2021-02-11 17:00:00 14.6 0 Calma 8 Sudoeste 0 965.3 -- 60
2021-02-11 16:00:00 15.1 0 Calma 12 Noroeste 0 965.3 -- 58
2021-02-11 15:00:00 14.8 3 Sudoeste 13 Sudeste 0 965.6 -- 58
2021-02-11 14:00:00 15.2 5 Oeste 14 Noroeste 0 965.8 -- 58
2021-02-11 13:00:00 13 3 Este 12 Sur 0 966 -- 64
2021-02-11 12:00:00 11.1 2 Sudeste 10 Este 0 966.1 -- 71
2021-02-11 11:00:00 10.7 0 Calma 10 Sudeste 0 965.9 -- 72
2021-02-11 10:00:00 7.4 3 Sudeste 7 Sudeste 0 965.6 -- 84
2021-02-11 09:00:00 6.2 0 Calma 6 Oeste 0 965.6 -- 85
2021-02-11 08:00:00 5 0 Calma 7 Sudoeste 0 965.4 -- 91
2021-02-11 07:00:00 4.2 0 Calma 8 Oeste 0 965.2 -- 96
2021-02-11 06:00:00 3.6 0 Calma 11 Sudeste 0 965.3 -- 99
2021-02-11 05:00:00 3.5 0 Calma 7 Sudeste 0 965.1 -- 99
2021-02-11 04:00:00 2.4 0 Calma 7 Sudeste 0 965.1 -- 99
2021-02-11 03:00:00 3.4 0 Calma 3 Sudoeste 0 965.6 -- 99
2021-02-11 02:00:00 3.4 0 Calma 4 Sudoeste 0 965.6 -- 99
2021-02-11 01:00:00 3.5 0 Calma 4 Sur 0 965.6 -- 99
2021-02-11 00:00:00 4.1 0 Calma 6 Sudoeste 0 965.3 -- 99
2021-02-10 23:00:00 5.2 0 Calma 5 Sudoeste 0 965.2 -- 97
2021-02-10 22:00:00 5.2 0 Calma 4 Sudoeste 0 965.1 -- 96
2021-02-10 21:00:00 6.3 0 Calma 0 Calma 0 964.8 -- 93
2021-02-10 20:00:00 6.4 0 Calma 5 Noroeste 0 964.5 -- 92
2021-02-10 19:00:00 6.9 0 Calma 12 Oeste 0 963.8 -- 89
2021-02-10 18:00:00 7.3 0 Calma 10 Oeste 0 962.5 -- 85
2021-02-10 17:00:00 7.4 7 Oeste 14 Oeste 0 962 -- 85
2021-02-10 16:00:00 6.7 6 Oeste 16 Oeste 0.3 961.6 -- 92
2021-02-10 15:00:00 6.7 10 Oeste 16 Noroeste 0.3 960.8 -- 87
2021-02-10 14:00:00 6.7 3 Oeste 8 Noroeste 0.2 960.5 -- 87
2021-02-10 13:00:00 6.3 5 Noroeste 15 Oeste 0.2 959.8 -- 85
2021-02-10 12:00:00 6.6 10 Oeste 21 Oeste 0.1 958.6 -- 82
2021-02-10 11:00:00 5.9 0 Calma 21 Oeste 0 957.2 -- 86
2021-02-10 10:00:00 5 3 Oeste 13 Oeste 0 956.2 -- 97
2021-02-10 09:00:00 4.5 10 Oeste 16 Oeste 0.1 954.9 -- 99
2021-02-10 08:00:00 4.2 4 Oeste 8 Oeste 0.2 953.3 -- 99
2021-02-10 07:00:00 4.5 0 Calma 7 Oeste 0.8 951.6 -- 99
2021-02-10 06:00:00 4.8 0 Calma 7 Oeste 1.1 950.3 -- 94
2021-02-10 05:00:00 6.1 0 Calma 13 Noroeste 0 949.2 -- 70
2021-02-10 04:00:00 6 4 Noroeste 13 Noroeste 0 949.1 -- 69
2021-02-10 03:00:00 6.1 4 Noroeste 27 Oeste 0 948.9 -- 65
2021-02-10 02:00:00 6.4 0 Calma 18 Oeste 0 949.2 -- 62
2021-02-10 01:00:00 6.5 2 Norte 25 Sudoeste 0 949.4 -- 64
2021-02-10 00:00:00 6.8 2 Oeste 42 Sur 0 949.4 -- 64
2021-02-09 23:00:00 7.3 8 Oeste 31 Oeste 0 949.4 -- 61
2021-02-09 22:00:00 7.6 3 Oeste 30 Sur 0 949 -- 58
2021-02-09 21:00:00 7.4 2 Sudeste 33 Sudoeste 0 948.5 -- 61
2021-02-09 20:00:00 7 3 Noroeste 29 Noroeste 0 948.5 -- 64
2021-02-09 19:00:00 6.8 5 Noroeste 29 Sudoeste 0 948.4 -- 64
2021-02-09 18:00:00 7 4 Noroeste 28 Oeste 0 947.6 -- 66
2021-02-09 17:00:00 7.5 6 Noroeste 28 Oeste 0 946.6 -- 66
2021-02-09 16:00:00 7.3 6 Sudeste 26 Sur 0.7 946.4 -- 78
2021-02-09 15:00:00 7 2 Sudeste 11 Sudoeste 3 947.6 -- 97
2021-02-09 14:00:00 7.5 4 Sudeste 17 Sur 1 947.3 -- 90
2021-02-09 13:00:00 8 12 Sudeste 30 Sudeste 0 947.7 -- 69
2021-02-09 12:00:00 10.9 10 Sur 51 Sudeste 0 947.9 -- 54
2021-02-09 11:00:00 8.9 6 Sudeste 28 Este 0 948.2 -- 61
2021-02-09 10:00:00 9.1 9 Sudeste 37 Sur 0 948.8 -- 61
2021-02-09 09:00:00 8.5 8 Sudeste 36 Sur 0 949.4 -- 61
2021-02-09 08:00:00 7.9 2 Sudoeste 31 Sudeste 0 949.7 -- 62
2021-02-09 07:00:00 7.5 4 Sur 38 Este 0 950.8 -- 63
2021-02-09 06:00:00 7.7 3 Sudoeste 26 Sur 0 951.7 -- 67
2021-02-09 05:00:00 8.1 5 Sudoeste 35 Sur 0 951.6 -- 64
2021-02-09 04:00:00 6.8 0 Calma 13 Sur 0 952.5 -- 78
2021-02-09 03:00:00 5.8 0 Calma 12 Sudoeste 0 953.4 -- 82
2021-02-09 02:00:00 6.1 3 Sudeste 10 Este 0 953.6 -- 87
2021-02-09 01:00:00 4.8 0 Calma 8 Este 0 953.5 -- 99
2021-02-09 00:00:00 5.4 6 Sudeste 9 Este 0 953 -- 99
2021-02-08 23:00:00 5.3 0 Calma 3 Oeste 0 953 -- 99
2021-02-08 22:00:00 5.9 0 Calma 9 Noroeste 0 952.4 1.4 97
2021-02-08 21:00:00 6.5 0 Calma 14 Oeste 0 952.2 -- 96
2021-02-08 20:00:00 6.4 2 Oeste 17 Noroeste 0 951.9 -- 99
2021-02-08 19:00:00 6.4 0 Calma 10 Oeste 0 951 -- 99
2021-02-08 18:00:00 6.7 5 Oeste 12 Oeste 0.1 949.8 -- 97
2021-02-08 17:00:00 7.1 11 Oeste 40 Oeste 3.7 949.2 -- 96
2021-02-08 16:00:00 9.8 5 Noroeste 18 Sudeste 0 948.2 -- 61
2021-02-08 15:00:00 8.9 0 Calma 6 Este 0 948.2 -- 88
2021-02-08 14:00:00 8.5 0 Calma 9 Norte 0 948.6 -- 93
2021-02-08 13:00:00 9.2 0 Calma 12 Noroeste 0.1 948.8 -- 92
2021-02-08 12:00:00 7.1 6 Oeste 13 Noroeste 2.4 949.2 -- 99
2021-02-08 11:00:00 6.4 0 Calma 10 Oeste 2.1 949.1 -- 99
2021-02-08 10:00:00 6.5 0 Calma 4 Sudeste 0.8 948.6 -- 99
2021-02-08 09:00:00 6.5 0 Calma 6 Noroeste 0.8 948.1 -- 96
2021-02-08 08:00:00 7.1 0 Calma 9 Norte 0 947.6 -- 85
2021-02-08 07:00:00 6.7 0 Calma 18 Noroeste 0 947.4 -- 84
2021-02-08 06:00:00 7.1 3 Sur 25 Sur 1.1 947.1 -- 84
2021-02-08 05:00:00 6.8 2 Norte 30 Oeste 1.1 947.8 -- 80
2021-02-08 04:00:00 7 0 Calma 26 Sudoeste 0.6 948.2 -- 81
2021-02-08 03:00:00 6.8 0 Calma 27 Sur 0.1 949.2 -- 78
2021-02-08 02:00:00 6.3 5 Sur 19 Sur 0 949.8 -- 79
2021-02-08 01:00:00 5 2 Noroeste 20 Noroeste 0 950.8 -- 91
2021-02-08 00:00:00 4.4 6 Sudeste 11 Sudeste 0 951.1 -- 94
2021-02-07 23:00:00 4.9 0 Calma 15 Oeste 0.2 951.7 -- 91
2021-02-07 22:00:00 5.1 0 Calma 15 Sudeste 0.2 952.4 -- 88
2021-02-07 21:00:00 5.2 0 Calma 15 Noroeste 0.4 952.9 -- 82
2021-02-07 20:00:00 6.1 0 Calma 12 Sur 0 953.1 -- 65
2021-02-07 19:00:00 5.7 0 Calma 7 Noroeste 0 953.2 -- 68
2021-02-07 18:00:00 6.4 3 Noroeste 15 Sudoeste 0 953.6 -- 61
2021-02-07 17:00:00 7.2 0 Calma 20 Sudeste 0 954 -- 57
2021-02-07 16:00:00 7.5 2 Sudoeste 15 Sur 0 954.3 -- 55
2021-02-07 15:00:00 7.4 3 Noroeste 17 Noroeste 0 954.5 -- 61
2021-02-07 14:00:00 6.9 4 Oeste 14 Noroeste 0 955.5 -- 63
2021-02-07 13:00:00 5.6 0 Calma 10 Sudoeste 0 956.7 -- 77
2021-02-07 12:00:00 5 0 Calma 8 Oeste 0 957.5 -- 90
2021-02-07 11:00:00 3.6 5 Oeste 12 Oeste 0 957.2 -- 98
2021-02-07 10:00:00 3 6 Oeste 15 Oeste 0 957.3 -- 99
2021-02-07 09:00:00 2.6 6 Oeste 11 Noroeste 0 957.3 -- 99
2021-02-07 08:00:00 2.6 2 Oeste 12 Oeste 0.3 957.4 -- 99
2021-02-07 07:00:00 2.6 6 Oeste 14 Oeste 0.9 957.3 -- 99
2021-02-07 06:00:00 2.6 8 Oeste 14 Oeste 1.3 957.4 -- 99
2021-02-07 05:00:00 2.5 7 Oeste 20 Oeste 0.1 957.4 -- 99
2021-02-07 04:00:00 2.4 10 Oeste 18 Oeste 0.8 957.7 -- 99
2021-02-07 03:00:00 2.5 8 Oeste 16 Oeste 0.4 958.2 -- 99
2021-02-07 02:00:00 2.6 9 Oeste 14 Oeste 0.2 958.4 -- 99
2021-02-07 01:00:00 2.7 6 Oeste 17 Oeste 0 958.3 -- 98
2021-02-07 00:00:00 3.1 9 Oeste 18 Noroeste 0.2 958.4 -- 96
2021-02-06 23:00:00 3.4 6 Oeste 23 Oeste 0.2 958.2 -- 94
2021-02-06 22:00:00 3.7 9 Oeste 32 Oeste 0.2 958 -- 94
2021-02-06 21:00:00 4.2 14 Oeste 40 Oeste 0.4 957.4 -- 88
2021-02-06 20:00:00 4.3 7 Noroeste 26 Oeste 0.6 956.9 -- 96
2021-02-06 19:00:00 4.5 8 Oeste 23 Oeste 0 956.1 -- 96
2021-02-06 18:00:00 4.6 10 Oeste 37 Oeste 0.2 955.6 -- 94
2021-02-06 17:00:00 4.9 21 Noroeste 40 Noroeste 1.1 954.9 -- 93
2021-02-06 16:00:00 5.5 18 Oeste 36 Oeste 1.6 953.8 -- 98
2021-02-06 15:00:00 6 19 Oeste 40 Noroeste 1.8 953.3 -- 98
2021-02-06 14:00:00 6.4 25 Oeste 44 Oeste 4.7 952.3 -- 99
2021-02-06 13:00:00 7 28 Oeste 46 Oeste 2.8 951.4 -- 99
2021-02-06 12:00:00 8.1 0 Calma 5 Oeste 1.2 951.1 -- 99
2021-02-06 11:00:00 7.9 0 Calma 5 Oeste 0.9 950.9 -- 99
2021-02-06 10:00:00 7.6 0 Calma 7 Noroeste 0.1 951.1 -- 99
2021-02-06 09:00:00 7.7 0 Calma 5 Oeste 0.1 951 -- 99
2021-02-06 08:00:00 7.6 0 Calma 3 Oeste 0 950.8 -- 99
2021-02-06 07:00:00 7.5 0 Calma 0 Calma 0 951.1 -- 99
2021-02-06 06:00:00 7.6 0 Calma 3 Sudoeste 0 951.2 -- 99
2021-02-06 05:00:00 7.7 0 Calma 8 Oeste 0.1 951.5 -- 99
2021-02-06 04:00:00 7.6 0 Calma 3 Oeste 0 952.1 -- 99
2021-02-06 03:00:00 7.6 0 Calma 6 Este 0 952.8 -- 99
2021-02-06 02:00:00 7.7 2 Este 5 Este 0 953.9 -- 99
2021-02-06 01:00:00 7.8 0 Calma 9 Noroeste 0 954.5 -- 99
2021-02-06 00:00:00 7.7 3 Noroeste 9 Noroeste 0 955 -- 99
2021-02-05 23:00:00 7.9 0 Calma 9 Norte 0 955.1 -- 99
2021-02-05 22:00:00 7.9 0 Calma 11 Noroeste 0 955 -- 99
2021-02-05 21:00:00 8 3 Noroeste 11 Norte 0 955.7 -- 99
2021-02-05 20:00:00 8.1 4 Norte 10 Noroeste 0 955.8 -- 99
2021-02-05 19:00:00 8.5 3 Norte 12 Noroeste 0 955.6 -- 99
2021-02-05 18:00:00 9.1 5 Noroeste 11 Norte 0.1 955.3 -- 98
2021-02-05 17:00:00 9.6 2 Norte 9 Norte 0 955.4 -- 93
2021-02-05 16:00:00 10.1 0 Calma 7 Este 0 955.8 -- 90
2021-02-05 15:00:00 10.3 0 Calma 8 Oeste 0 956.2 -- 90
2021-02-05 14:00:00 9.6 0 Calma 5 Oeste 0 957.3 -- 95
2021-02-05 13:00:00 8.9 0 Calma 4 Oeste 0 958.1 -- 99
2021-02-05 12:00:00 8.2 0 Calma 5 Sudeste 0.2 959 -- 99
2021-02-05 11:00:00 7.4 0 Calma 6 Sudeste 0 959.3 -- 99
2021-02-05 10:00:00 7.4 0 Calma 5 Este 0 959.5 -- 99
2021-02-05 09:00:00 7 0 Calma 14 Noroeste 0 959.9 -- 99
2021-02-05 08:00:00 7.1 0 Calma 5 Oeste 0 959.6 -- 99
2021-02-05 07:00:00 6.9 0 Calma 9 Este 0.6 959.4 -- 99
2021-02-05 06:00:00 7 0 Calma 6 Oeste 0 960.3 -- 99
2021-02-05 05:00:00 6.6 0 Calma 8 Oeste 0 959.7 -- 99
2021-02-05 04:00:00 6.4 4 Oeste 12 Oeste 0 959.7 -- 99
2021-02-05 03:00:00 6.5 3 Oeste 13 Oeste 0 960.3 -- 99
2021-02-05 02:00:00 7 0 Calma 4 Sudoeste 0 960.2 -- 98
2021-02-05 01:00:00 7.3 0 Calma 10 Noroeste 0 960.6 -- 97
2021-02-05 00:00:00 7.6 8 Oeste 15 Oeste 0 960.7 -- 97
2021-02-04 23:00:00 7.5 0 Calma 20 Oeste 0 960.1 -- 97
2021-02-04 22:00:00 7.7 12 Oeste 30 Oeste 0 959.6 -- 97
2021-02-04 21:00:00 8.8 10 Oeste 25 Oeste 0 959.3 -- 94
2021-02-04 20:00:00 9.8 6 Oeste 15 Noroeste 0 958.9 -- 89
2021-02-04 19:00:00 10.4 3 Oeste 18 Oeste 0 958.8 -- 83
2021-02-04 18:00:00 11.3 8 Oeste 22 Oeste 0 958.8 -- 75
2021-02-04 17:00:00 12.3 13 Oeste 20 Oeste 0 958.4 -- 72
2021-02-04 16:00:00 13.3 0 Calma 5 Sudeste 0 958.5 -- 71
2021-02-04 15:00:00 13 0 Calma 7 Este 0 959 -- 69
2021-02-04 14:00:00 12.1 0 Calma 0 Calma 0 959.8 -- 75
2021-02-04 13:00:00 11.1 0 Calma 2 Sudoeste 0 960.6 -- 84
2021-02-04 12:00:00 10.8 0 Calma 0 Calma 0 961 -- 85
2021-02-04 11:00:00 10.5 0 Calma 5 Oeste 0 961.3 -- 87
2021-02-04 10:00:00 9.7 0 Calma 5 Sudeste 0 961.1 -- 88
2021-02-04 09:00:00 8.9 0 Calma 8 Sudoeste 0 960.8 -- 92
2021-02-04 08:00:00 8.9 0 Calma 5 Oeste 0 960.7 -- 93
2021-02-04 07:00:00 9.8 0 Calma 7 Sudeste 0 960.5 -- 82
2021-02-04 06:00:00 9.3 0 Calma 4 Sur 0.2 960.7 -- 91
2021-02-04 05:00:00 9 0 Calma 5 Oeste 0 960.4 -- 88
2021-02-04 04:00:00 9.3 0 Calma 10 Sudeste 0 960.5 -- 81
2021-02-04 03:00:00 8.7 0 Calma 8 Sur 0 960.9 -- 98
2021-02-04 02:00:00 8.7 0 Calma 6 Noroeste 0 961 -- 98
2021-02-04 01:00:00 8.8 0 Calma 12 Sudeste 0.2 961.2 -- 97
2021-02-04 00:00:00 9 3 Oeste 10 Oeste 0.3 961.6 -- 95
2021-02-03 23:00:00 9.5 3 Sudeste 9 Sur 0.4 961.2 -- 86
2021-02-03 22:00:00 11 0 Calma 12 Sudeste 0.1 961 -- 65
2021-02-03 21:00:00 10.8 6 Sudeste 17 Sudeste 0.3 961.1 -- 68
2021-02-03 20:00:00 11 7 Sudeste 14 Sur 0.1 961.4 -- 66
2021-02-03 19:00:00 12.5 3 Sudeste 17 Sur 0 961.2 -- 55
2021-02-03 18:00:00 12.3 3 Sudeste 17 Sur 0 960.8 -- 58
2021-02-03 17:00:00 13.1 4 Sudeste 16 Sur 0 960.6 -- 54
2021-02-03 16:00:00 13.8 0 Calma 20 Oeste 0 960.9 -- 51
2021-02-03 15:00:00 14.2 0 Calma 23 Oeste 0 960.8 -- 50
2021-02-03 14:00:00 13.8 2 Oeste 15 Oeste 0 961 -- 54
2021-02-03 13:00:00 13.2 0 Calma 19 Sudoeste 0 961 -- 57
2021-02-03 12:00:00 13.3 3 Oeste 19 Noroeste 0 961 -- 58
2021-02-03 11:00:00 12.9 3 Oeste 24 Noroeste 0 960.6 -- 61
2021-02-03 10:00:00 12.7 5 Oeste 40 Noroeste 0 960 -- 60
2021-02-03 09:00:00 12.7 3 Sur 47 Oeste 0 959.2 -- 59
2021-02-03 08:00:00 12.8 5 Oeste 52 Oeste 0 958.7 -- 58
2021-02-03 07:00:00 12.7 6 Oeste 31 Sur 0 958.1 -- 59
2021-02-03 06:00:00 13 4 Oeste 33 Sur 0 957.7 -- 58
2021-02-03 05:00:00 13.3 6 Sur 49 Sudeste 0 957.7 -- 55
2021-02-03 04:00:00 11.5 9 Sudeste 18 Sudeste 0 958.1 -- 63
2021-02-03 03:00:00 11.2 6 Sudeste 17 Sudeste 0 958.3 -- 61
2021-02-03 02:00:00 12 5 Sur 24 Sudeste 0 958.5 -- 57
2021-02-03 01:00:00 13.3 9 Sur 28 Sudeste 0 959.2 -- 51
2021-02-03 00:00:00 12.3 0 Calma 15 Sur 0 959.6 -- 62
2021-02-02 23:00:00 12.7 4 Sur 18 Sur 0 960.2 -- 60
2021-02-02 22:00:00 12.9 2 Oeste 33 Sudeste 0 960.4 -- 58
2021-02-02 21:00:00 12.4 2 Oeste 13 Noroeste 0 960.7 -- 59
2021-02-02 20:00:00 12 8 Sudeste 15 Sur 0 960 -- 62
2021-02-02 19:00:00 12.3 0 Calma 13 Este 0 960.7 -- 62
2021-02-02 18:00:00 12.1 5 Sudeste 22 Sur 0 960.9 -- 68
2021-02-02 17:00:00 11.6 0 Calma 24 Noroeste 0.4 961.9 -- 72
2021-02-02 16:00:00 13.6 4 Sur 26 Sudoeste 0 962 -- 52
2021-02-02 15:00:00 14.3 5 Sudoeste 31 Sur 0 962.1 -- 52
2021-02-02 14:00:00 15.3 3 Sur 31 Oeste 0 962.3 -- 51
2021-02-02 13:00:00 15 5 Noroeste 40 Sur 0 962.5 -- 54
2021-02-02 12:00:00 13.8 5 Sudeste 28 Sudeste 0 962.9 -- 57
2021-02-02 11:00:00 13.3 2 Sudoeste 19 Sudoeste 0 963.1 -- 59
2021-02-02 10:00:00 12.6 0 Calma 11 Sur 0 962.6 -- 63
2021-02-02 09:00:00 11.8 5 Sudeste 24 Oeste 0 962.6 -- 66
2021-02-02 08:00:00 11.4 2 Sudeste 17 Sur 0 962.2 -- 70
2021-02-02 07:00:00 10.7 0 Calma 14 Sudoeste 0 962.7 -- 75
2021-02-02 06:00:00 10.8 0 Calma 11 Sudoeste 0 962.4 -- 75
2021-02-02 05:00:00 9.7 0 Calma 10 Nordeste 0 962.3 -- 82
2021-02-02 04:00:00 9.7 2 Sudeste 21 Sudeste 0 962.6 -- 85
2021-02-02 03:00:00 8.1 0 Calma 8 Sudeste 0 963.6 -- 98
2021-02-02 02:00:00 8.4 0 Calma 5 Sudeste 0 963.6 -- 99
2021-02-02 01:00:00 8.5 4 Sudeste 9 Sudeste 0 963.7 -- 99
2021-02-02 00:00:00 8.8 0 Calma 11 Sudeste 0 963.5 -- 99
2021-02-01 23:00:00 9 6 Sudeste 10 Este 0 963.2 -- 99
2021-02-01 22:00:00 9 7 Sudeste 10 Sudeste 0.1 963.3 -- 99
2021-02-01 21:00:00 9.3 2 Este 7 Sudeste 0.2 963.6 -- 99
2021-02-01 20:00:00 9.7 0 Calma 0 Calma 2.1 964.2 1.7 99
2021-02-01 19:00:00 10.3 0 Calma 10 Sudeste 0.3 963.8 -- 92
2021-02-01 18:00:00 11.1 3 Sudeste 8 Sudeste 0 962.9 -- 84
2021-02-01 17:00:00 11.4 3 Sudeste 9 Sudeste 0 962.5 -- 83
2021-02-01 16:00:00 11.2 0 Calma 15 Oeste 0 962.1 -- 81
2021-02-01 15:00:00 11.3 10 Noroeste 23 Noroeste 0 961.6 -- 78
2021-02-01 14:00:00 11.1 18 Oeste 39 Oeste 0 961.6 -- 75
2021-02-01 13:00:00 11.4 17 Noroeste 32 Noroeste 0 961.2 -- 70
2021-02-01 12:00:00 11.5 19 Oeste 45 Oeste 0 960.8 -- 67
2021-02-01 11:00:00 10.2 12 Oeste 32 Oeste 0 960.3 -- 73
2021-02-01 10:00:00 9.6 15 Oeste 39 Oeste 0 959.4 -- 74
2021-02-01 09:00:00 9.8 28 Oeste 51 Oeste 0 958.6 -- 70
2021-02-01 08:00:00 9.9 28 Oeste 54 Oeste 0 957.6 -- 64
2021-02-01 07:00:00 9.8 19 Oeste 37 Oeste 0 957 -- 69
2021-02-01 06:00:00 9.6 18 Oeste 38 Oeste 0 957.1 -- 74
2021-02-01 05:00:00 9.5 19 Oeste 36 Noroeste 0 956.8 -- 76
2021-02-01 04:00:00 9.5 21 Oeste 40 Noroeste 0.1 956.7 -- 78
2021-02-01 03:00:00 9 12 Oeste 30 Oeste 0.3 956.3 -- 84
2021-02-01 02:00:00 8.8 9 Oeste 49 Oeste 0.4 956.3 -- 89
2021-02-01 01:00:00 10.3 27 Oeste 45 Oeste 0.2 956.2 -- 73
2021-02-01 00:00:00 10.8 8 Noroeste 19 Oeste 0 955.3 -- 75
2021-01-31 23:00:00 10.6 13 Oeste 26 Oeste 0 955.2 -- 81
2021-01-31 22:00:00 11 12 Oeste 23 Oeste 0 955 -- 77
2021-01-31 21:00:00 11.1 8 Oeste 14 Noroeste 0 954.4 -- 78
2021-01-31 20:00:00 10.2 0 Calma 11 Norte 0 954.1 -- 82
2021-01-31 19:00:00 10.7 0 Calma 21 Este 0 954.5 -- 78
2021-01-31 18:00:00 11.9 3 Sur 21 Oeste 0 954.5 -- 69
2021-01-31 17:00:00 11.4 4 Noroeste 16 Oeste 0 955.5 -- 73
2021-01-31 16:00:00 11.4 3 Noroeste 12 Noroeste 0 956.2 -- 82
2021-01-31 15:00:00 9.6 4 Noroeste 12 Sudeste 0 957.1 -- 99
2021-01-31 14:00:00 7.3 6 Sudeste 20 Este 0.1 957.9 -- 99
2021-01-31 13:00:00 6.9 6 Sudeste 10 Sudeste 0.1 958.6 -- 99
2021-01-31 12:00:00 7.1 0 Calma 16 Noroeste 1.3 959.2 -- 96
2021-01-31 11:00:00 6.9 0 Calma 9 Noroeste 0.3 959.5 -- 97
2021-01-31 10:00:00 6.2 0 Calma 12 Oeste 0.3 959.5 -- 94
2021-01-31 09:00:00 6.3 6 Noroeste 15 Noroeste 0 959.6 -- 92
2021-01-31 08:00:00 6.4 5 Oeste 18 Oeste 0.1 959.2 -- 94
2021-01-31 07:00:00 5.9 10 Oeste 32 Oeste 0.4 959 -- 99
2021-01-31 06:00:00 6.2 15 Oeste 47 Noroeste 0.6 958.3 -- 97
2021-01-31 05:00:00 6.6 28 Oeste 52 Noroeste 0.4 957.5 -- 91
2021-01-31 04:00:00 6.7 24 Oeste 56 Oeste 1 957.4 -- 90
2021-01-31 03:00:00 7.3 18 Oeste 41 Oeste 0.2 957.1 -- 81
2021-01-31 02:00:00 7.4 16 Oeste 40 Oeste 0.1 956.9 -- 79
2021-01-31 01:00:00 6.9 14 Oeste 31 Oeste 0.5 956.9 -- 81
2021-01-31 00:00:00 6.6 15 Noroeste 48 Oeste 0.3 957 -- 82